createdAt,value
2022-08-22T00:00:25.106Z,7.5
2022-08-22T00:02:52.249Z,10.5
2022-08-22T00:03:05.529Z,9.3
2022-08-22T00:05:25.085Z,8.3
2022-08-22T00:10:25.847Z,8.4
2022-08-22T00:15:31.480Z,9.3
2022-08-22T00:20:28.035Z,10.4
2022-08-22T00:25:25.978Z,10.3
2022-08-22T00:30:25.100Z,10.4
2022-08-22T00:35:25.090Z,13.2
2022-08-22T00:40:25.108Z,12
2022-08-22T00:45:25.105Z,12.4
2022-08-22T00:50:25.097Z,13.2
2022-08-22T00:55:25.102Z,11.7
2022-08-22T01:00:25.101Z,11.1
2022-08-22T01:05:25.109Z,11.4
2022-08-22T01:10:25.107Z,10.9
2022-08-22T01:15:25.095Z,11.8
2022-08-22T01:20:25.110Z,11.7
2022-08-22T01:25:25.787Z,11.2
2022-08-22T01:30:25.101Z,10.8
2022-08-22T01:35:25.098Z,11
2022-08-22T01:40:25.101Z,10.1
2022-08-22T01:45:25.092Z,9.2
2022-08-22T01:50:25.102Z,7.7
2022-08-22T01:55:25.095Z,7.4
2022-08-22T02:00:34.954Z,8.6
2022-08-22T02:05:25.086Z,10.7
2022-08-22T02:10:25.100Z,8.2
2022-08-22T02:15:25.096Z,10.6
2022-08-22T02:20:25.098Z,11.3
2022-08-22T02:25:25.097Z,8.6
2022-08-22T02:30:25.102Z,8.7
2022-08-22T02:35:25.090Z,11.2
2022-08-22T02:40:25.235Z,12.7
2022-08-22T02:45:25.107Z,11.2
2022-08-22T02:50:25.094Z,11.8
2022-08-22T02:55:25.094Z,10.3
2022-08-22T03:00:31.026Z,8.3
2022-08-22T03:05:25.090Z,8.1
2022-08-22T03:10:25.104Z,0
2022-08-22T03:15:25.100Z,5.9
2022-08-22T03:20:25.108Z,7.5
2022-08-22T03:25:25.095Z,7
2022-08-22T03:30:25.107Z,7
2022-08-22T03:35:25.091Z,7.9
2022-08-22T03:40:25.404Z,7.4
2022-08-22T03:45:25.099Z,7.4
2022-08-22T03:50:25.100Z,5
2022-08-22T03:55:25.107Z,5
2022-08-22T04:00:25.205Z,6.5
2022-08-22T04:05:25.095Z,6.9
2022-08-22T04:10:25.115Z,5.1
2022-08-22T04:15:25.097Z,4.4
2022-08-22T04:20:25.094Z,7.7
2022-08-22T04:25:25.099Z,8.2
2022-08-22T04:30:25.105Z,8.2
2022-08-22T04:35:25.092Z,8
2022-08-22T04:40:25.195Z,8
2022-08-22T04:45:25.090Z,8.7
2022-08-22T04:50:25.103Z,9
2022-08-22T04:55:25.092Z,7.7
2022-08-22T05:00:25.102Z,9
2022-08-22T05:05:25.095Z,9.2
2022-08-22T05:10:25.099Z,8.4
2022-08-22T05:15:25.102Z,8.2
2022-08-22T05:20:25.104Z,8.1
2022-08-22T05:25:25.095Z,9.2
2022-08-22T05:30:25.096Z,8.8
2022-08-22T05:35:25.096Z,8.8
2022-08-22T05:40:25.097Z,7.4
2022-08-22T05:45:25.096Z,6.6
2022-08-22T05:50:25.097Z,6.7
2022-08-22T05:55:25.097Z,9.2
2022-08-22T06:00:25.100Z,8.4
2022-08-22T06:05:25.093Z,8.5
2022-08-22T06:10:25.114Z,12.8
2022-08-22T06:15:25.101Z,12.8
2022-08-22T06:20:25.096Z,9.5
2022-08-22T06:25:25.104Z,10.4
2022-08-22T06:30:25.127Z,11.3
2022-08-22T06:35:25.111Z,10.5
2022-08-22T06:40:25.137Z,10.4
2022-08-22T06:45:25.101Z,9.4
2022-08-22T06:50:25.136Z,10.7
2022-08-22T06:55:25.116Z,10.7
2022-08-22T07:00:25.125Z,11.2
2022-08-22T07:05:25.122Z,12.8
2022-08-22T07:10:25.115Z,12.4
2022-08-22T07:15:25.103Z,11.2
2022-08-22T07:20:25.161Z,12.6
2022-08-22T07:25:25.105Z,12.4
2022-08-22T07:30:27.813Z,9.7
2022-08-22T07:35:25.095Z,10.8
2022-08-22T07:40:25.213Z,9.9
2022-08-22T07:45:25.092Z,9.8
2022-08-22T07:50:25.129Z,7.2
2022-08-22T07:55:25.097Z,10.7
2022-08-22T08:00:25.187Z,9
2022-08-22T08:05:25.090Z,9.8
2022-08-22T08:10:25.091Z,9.8
2022-08-22T08:15:25.093Z,6.8
2022-08-22T08:20:25.105Z,12.8
2022-08-22T08:25:25.099Z,11.4
2022-08-22T08:30:25.106Z,8.3
2022-08-22T08:35:25.424Z,15.7
2022-08-22T08:40:25.190Z,12.7
2022-08-22T08:45:25.113Z,12.7
2022-08-22T08:50:25.106Z,16.9
2022-08-22T08:55:25.173Z,17.9
2022-08-22T09:00:25.841Z,17.2
2022-08-22T09:05:25.109Z,13.1
2022-08-22T09:10:27.339Z,13.1
2022-08-22T09:15:25.094Z,14.6
2022-08-22T09:20:25.107Z,18.3
2022-08-22T09:25:25.099Z,15.9
2022-08-22T09:30:27.826Z,15.9
2022-08-22T09:35:25.098Z,14.2
2022-08-22T09:45:25.098Z,12.5
2022-08-22T09:50:25.097Z,14.6
2022-08-22T09:55:33.826Z,14
2022-08-22T10:00:25.640Z,11.1
2022-08-22T10:05:35.372Z,14.6
2022-08-22T10:10:25.089Z,13.2
2022-08-22T10:15:25.100Z,21.6
2022-08-22T10:20:25.104Z,18.4
2022-08-22T10:25:25.127Z,11.7
2022-08-22T10:30:25.107Z,14.8
2022-08-22T10:35:25.551Z,18.7
2022-08-22T10:40:25.173Z,9.9
2022-08-22T10:45:35.819Z,18.9
2022-08-22T10:50:25.099Z,14.1
2022-08-22T10:55:25.101Z,18.2
2022-08-22T11:00:25.525Z,13.9
2022-08-22T11:05:25.087Z,14.6
2022-08-22T11:10:25.114Z,10
2022-08-22T11:15:28.404Z,17.8
2022-08-22T11:20:25.103Z,14.8
2022-08-22T11:25:29.321Z,25.1
2022-08-22T11:30:25.836Z,22
2022-08-22T11:35:25.098Z,19.3
2022-08-22T11:40:25.123Z,16.3
2022-08-22T11:45:25.099Z,15.7
2022-08-22T11:50:25.099Z,21.9
2022-08-22T11:55:27.534Z,17
2022-08-22T12:00:25.129Z,12.8
2022-08-22T12:05:26.384Z,12.7
2022-08-22T12:10:25.098Z,19.7
2022-08-22T12:15:25.108Z,19.7
2022-08-22T12:20:25.106Z,10.5
2022-08-22T12:25:25.104Z,18.7
2022-08-22T12:30:25.111Z,16.6
2022-08-22T12:35:27.222Z,16.9
2022-08-22T12:40:26.266Z,18.2
2022-08-22T12:45:25.095Z,10.6
2022-08-22T12:50:25.102Z,16.5
2022-08-22T12:55:25.132Z,12.8
2022-08-22T13:00:26.827Z,22.2
2022-08-22T13:05:25.097Z,22
2022-08-22T13:10:25.102Z,15.5
2022-08-22T13:15:25.091Z,14.2
2022-08-22T13:20:26.580Z,15.8
2022-08-22T13:25:25.730Z,9.2
2022-08-22T13:30:25.114Z,12
2022-08-22T13:35:25.099Z,19.2
2022-08-22T13:40:25.177Z,22.7
2022-08-22T13:45:25.108Z,17.1
2022-08-22T13:50:25.105Z,15
2022-08-22T13:55:25.099Z,12.8
2022-08-22T14:00:28.949Z,11.7
2022-08-22T14:05:25.099Z,16.9
2022-08-22T14:10:25.098Z,14.4
2022-08-22T14:15:25.095Z,12.8
2022-08-22T14:20:28.438Z,9.6
2022-08-22T14:25:25.107Z,9.6
2022-08-22T14:30:25.102Z,10.5
2022-08-22T14:35:25.472Z,17.3
2022-08-22T14:40:25.139Z,12
2022-08-22T14:45:25.104Z,12
2022-08-22T14:50:25.095Z,14.9
2022-08-22T14:55:25.098Z,11.5
2022-08-22T15:00:25.116Z,8.2
2022-08-22T15:05:25.088Z,8.3
2022-08-22T15:10:25.097Z,16.4
2022-08-22T15:15:25.095Z,11.7
2022-08-22T15:20:25.973Z,11.7
2022-08-22T15:25:25.106Z,10.2
2022-08-22T15:30:25.092Z,10.2
2022-08-22T15:35:25.094Z,17.6
2022-08-22T15:40:25.157Z,17.6
2022-08-22T15:45:25.089Z,16.1
2022-08-22T15:50:25.105Z,14.7
2022-08-22T15:55:25.087Z,16.3
2022-08-22T16:00:27.956Z,15.1
2022-08-22T16:05:25.089Z,11.7
2022-08-22T16:10:25.103Z,16.3
2022-08-22T16:15:25.094Z,10.4
2022-08-22T16:20:25.099Z,6.6
2022-08-22T16:25:25.091Z,11.5
2022-08-22T16:30:25.102Z,9
2022-08-22T16:35:25.090Z,8.5
2022-08-22T16:40:25.165Z,5.8
2022-08-22T16:45:25.101Z,4
2022-08-22T16:50:25.116Z,10.5
2022-08-22T16:55:25.099Z,8.4
2022-08-22T17:00:25.105Z,10.7
2022-08-22T17:05:25.099Z,10.2
2022-08-22T17:10:25.093Z,9.9
2022-08-22T17:15:25.097Z,9.5
2022-08-22T17:20:25.105Z,9
2022-08-22T17:25:25.097Z,7
2022-08-22T17:30:25.107Z,5.9
2022-08-22T17:35:25.097Z,6.1
2022-08-22T17:40:25.157Z,6
2022-08-22T17:45:27.836Z,6.9
2022-08-22T17:50:25.097Z,8
2022-08-22T17:55:25.095Z,8
2022-08-22T18:00:25.091Z,8.5
2022-08-22T18:05:25.090Z,9.1
2022-08-22T18:10:25.091Z,8.4
2022-08-22T18:15:25.097Z,8.4
2022-08-22T18:20:25.101Z,7.8
2022-08-22T18:25:25.092Z,7.7
2022-08-22T18:30:25.095Z,7.9
2022-08-22T18:35:25.095Z,9
2022-08-22T18:40:25.179Z,8.1
2022-08-22T18:45:25.106Z,9
2022-08-22T18:50:25.102Z,7.7
2022-08-22T18:55:25.099Z,4
2022-08-22T19:00:25.102Z,7.3
2022-08-22T19:05:25.093Z,5.3
2022-08-22T19:10:25.095Z,6.6
2022-08-22T19:15:25.103Z,7.4
2022-08-22T19:20:25.110Z,5.6
2022-08-22T19:25:25.112Z,6.3
2022-08-22T19:30:25.099Z,5
2022-08-22T19:35:25.098Z,7.5
2022-08-22T19:40:25.172Z,7.2
2022-08-22T19:45:25.097Z,0
2022-08-22T19:50:25.102Z,7.9
2022-08-22T19:55:25.093Z,7.6
2022-08-22T20:00:25.121Z,8.6
2022-08-22T20:05:25.111Z,8.5
2022-08-22T20:10:25.116Z,7.6
2022-08-22T20:15:25.110Z,7.4
2022-08-22T20:20:35.071Z,8.8
2022-08-22T20:25:41.961Z,9
2022-08-22T20:30:25.109Z,9
2022-08-22T20:35:25.098Z,8.3
2022-08-22T20:40:53.337Z,8
2022-08-22T20:45:25.098Z,8.4
2022-08-22T20:50:25.100Z,7.1
2022-08-22T20:55:25.098Z,7.7
2022-08-22T21:00:25.111Z,7.5
2022-08-22T21:05:25.101Z,7.3
2022-08-22T21:10:25.101Z,8.7
2022-08-22T21:15:25.100Z,6.8
2022-08-22T21:20:25.111Z,6.8
2022-08-22T21:25:25.094Z,6.6
2022-08-22T21:30:25.106Z,6.5
2022-08-22T21:35:25.095Z,6.3
2022-08-22T21:40:25.167Z,6.9
2022-08-22T21:45:25.101Z,5.5
2022-08-22T21:50:25.118Z,5.9
2022-08-22T21:55:25.102Z,4
2022-08-22T22:00:25.100Z,5
2022-08-22T22:05:25.091Z,4.6
2022-08-22T22:10:25.102Z,4
2022-08-22T22:15:25.087Z,5.8
2022-08-22T22:20:25.094Z,6.7
2022-08-22T22:25:39.410Z,5.4
2022-08-22T22:30:25.099Z,5.4
2022-08-22T22:35:25.089Z,6.1
2022-08-22T22:40:25.171Z,8.5
2022-08-22T22:45:25.094Z,5.5
2022-08-22T22:50:25.103Z,7.7
2022-08-22T22:55:25.301Z,8.2
2022-08-22T23:00:25.566Z,7.5
2022-08-22T23:05:25.103Z,8.1
2022-08-22T23:10:25.097Z,7.2
2022-08-22T23:15:25.086Z,7.4
2022-08-22T23:20:25.094Z,7.2
2022-08-22T23:25:25.093Z,8.1
2022-08-22T23:30:25.102Z,7.2
2022-08-22T23:35:25.102Z,7.1
2022-08-22T23:40:25.173Z,7
2022-08-22T23:45:25.096Z,7.3
2022-08-22T23:50:25.088Z,7.5
2022-08-22T23:55:25.113Z,7.8
